createdAt,value
2018-09-24T00:00:34.277Z,0.40
2018-09-24T00:03:01.921Z,0.40
2018-09-24T00:05:29.612Z,0.30
2018-09-24T00:07:57.263Z,0.50
2018-09-24T00:10:24.870Z,0.40
2018-09-24T00:12:52.589Z,0.40
2018-09-24T00:15:20.200Z,0.40
2018-09-24T00:17:47.810Z,1.77
2018-09-24T00:20:15.489Z,0.50
2018-09-24T00:22:43.134Z,0.30
2018-09-24T00:25:10.795Z,0.57
2018-09-24T00:27:38.427Z,0.50
2018-09-24T00:30:06.049Z,1.37
2018-09-24T00:32:33.630Z,0.60
2018-09-24T00:35:01.247Z,0.40
2018-09-24T00:37:28.830Z,0.57
2018-09-24T00:39:56.443Z,0.50
2018-09-24T00:42:24.119Z,0.37
2018-09-24T00:44:51.737Z,0.40
2018-09-24T00:47:19.379Z,0.47
2018-09-24T00:49:47.022Z,0.50
2018-09-24T00:52:14.651Z,0.40
2018-09-24T00:54:42.294Z,0.80
2018-09-24T00:57:09.949Z,0.57
2018-09-24T00:59:37.640Z,0.67
2018-09-24T01:02:05.259Z,0.43
2018-09-24T01:04:32.960Z,0.77
2018-09-24T01:07:00.580Z,0.93
2018-09-24T01:09:28.236Z,0.40
2018-09-24T01:11:55.848Z,3.80
2018-09-24T01:14:23.451Z,0.40
2018-09-24T01:16:51.034Z,0.60
2018-09-24T01:19:18.641Z,3.43
2018-09-24T01:21:46.255Z,0.40
2018-09-24T01:24:13.825Z,0.50
2018-09-24T01:26:41.419Z,0.60
2018-09-24T01:29:09.209Z,0.73
2018-09-24T01:31:36.831Z,1.23
2018-09-24T01:34:04.373Z,0.90
2018-09-24T01:36:31.961Z,0.83
2018-09-24T01:38:59.564Z,2.77
2018-09-24T01:41:27.121Z,1.63
2018-09-24T01:43:54.749Z,1.03
2018-09-24T01:46:22.384Z,1.63
2018-09-24T01:48:50.074Z,1.50
2018-09-24T01:51:17.672Z,1.83
2018-09-24T01:53:45.297Z,1.77
2018-09-24T01:56:12.947Z,2.67
2018-09-24T01:58:40.560Z,2.77
2018-09-24T02:01:08.194Z,1.70
2018-09-24T02:03:35.883Z,4.20
2018-09-24T02:06:04.308Z,7.43
2018-09-24T02:08:32.038Z,2.80
2018-09-24T02:10:59.675Z,2.10
2018-09-24T02:13:27.282Z,3.80
2018-09-24T02:15:54.897Z,6.03
2018-09-24T02:18:22.489Z,1.60
2018-09-24T02:20:50.090Z,1.90
2018-09-24T02:23:18.026Z,3.63
2018-09-24T02:25:45.665Z,1.97
2018-09-24T02:28:13.319Z,2.37
2018-09-24T02:30:40.873Z,2.83
2018-09-24T02:33:10.207Z,2.63
2018-09-24T02:35:38.213Z,3.73
2018-09-24T02:38:05.782Z,7.50
2018-09-24T02:40:33.337Z,4.23
2018-09-24T02:43:00.922Z,2.23
2018-09-24T02:45:28.481Z,2.50
2018-09-24T02:47:56.122Z,2.77
2018-09-24T02:50:34.458Z,2.90
2018-09-24T02:53:02.344Z,2.80
2018-09-24T02:55:30.002Z,2.60
2018-09-24T02:57:57.548Z,4.40
2018-09-24T03:00:25.176Z,3.40
2018-09-24T03:02:52.773Z,3.30
2018-09-24T03:05:20.367Z,4.30
2018-09-24T03:07:47.962Z,5.40
2018-09-24T03:10:15.632Z,3.50
2018-09-24T03:12:48.187Z,4.53
2018-09-24T03:15:15.783Z,4.07
2018-09-24T03:17:43.486Z,4.90
2018-09-24T03:20:11.664Z,3.13
2018-09-24T03:22:39.288Z,5.60
2018-09-24T03:25:07.015Z,5.03
2018-09-24T03:27:34.627Z,7.57
2018-09-24T03:30:02.234Z,4.90
2018-09-24T03:32:29.801Z,4.43
2018-09-24T03:34:57.457Z,4.30
2018-09-24T03:37:25.048Z,4.97
2018-09-24T03:39:52.668Z,5.53
2018-09-24T03:42:20.318Z,6.30
2018-09-24T03:44:47.849Z,7.43
2018-09-24T03:47:15.469Z,6.60
2018-09-24T03:49:43.030Z,10.40
2018-09-24T03:52:10.722Z,9.03
2018-09-24T03:54:38.325Z,10.37
2018-09-24T03:57:05.996Z,5.47
2018-09-24T03:59:33.569Z,5.83
2018-09-24T04:02:01.108Z,9.50
2018-09-24T04:04:34.225Z,8.50
2018-09-24T04:07:08.447Z,8.27
2018-09-24T04:09:41.675Z,8.60
2018-09-24T04:12:14.732Z,9.73
2018-09-24T04:14:48.036Z,11.43
2018-09-24T04:17:21.188Z,11.30
2018-09-24T04:19:54.367Z,6.93
2018-09-24T04:22:27.572Z,6.97
2018-09-24T04:25:00.873Z,8.37
2018-09-24T04:27:34.156Z,7.10
2018-09-24T04:30:07.446Z,9.13
2018-09-24T04:32:40.604Z,7.00
2018-09-24T04:35:13.772Z,15.10
2018-09-24T04:37:46.993Z,9.00
2018-09-24T04:40:20.062Z,7.10
2018-09-24T04:42:53.237Z,13.80
2018-09-24T04:45:26.440Z,10.20
2018-09-24T04:47:59.659Z,12.63
2018-09-24T04:50:33.030Z,13.13
2018-09-24T04:53:06.457Z,9.77
2018-09-24T04:55:39.652Z,12.37
2018-09-24T04:58:13.000Z,8.87
2018-09-24T05:00:46.237Z,9.10
2018-09-24T05:03:19.429Z,13.40
2018-09-24T05:05:52.759Z,10.83
2018-09-24T05:08:25.974Z,15.50
2018-09-24T05:10:59.293Z,13.77
2018-09-24T05:13:32.452Z,16.30
2018-09-24T05:16:05.798Z,11.07
2018-09-24T05:18:38.893Z,12.90
2018-09-24T05:21:12.188Z,12.57
2018-09-24T05:23:45.402Z,12.87
2018-09-24T05:26:18.696Z,13.23
2018-09-24T05:28:52.095Z,13.27
2018-09-24T05:31:25.329Z,17.73
2018-09-24T05:33:58.545Z,15.20
2018-09-24T05:36:31.786Z,14.27
2018-09-24T05:39:05.022Z,12.47
2018-09-24T05:41:38.244Z,12.73
2018-09-24T05:44:11.412Z,10.17
2018-09-24T05:46:44.449Z,11.60
2018-09-24T05:49:17.648Z,19.10
2018-09-24T05:51:50.869Z,15.10
2018-09-24T05:54:24.120Z,10.27
2018-09-24T05:56:57.334Z,13.50
2018-09-24T05:59:30.588Z,11.77
2018-09-24T06:02:03.829Z,16.63
2018-09-24T06:04:37.068Z,13.20
2018-09-24T06:07:10.349Z,14.60
2018-09-24T06:09:43.488Z,24.40
2018-09-24T06:12:16.767Z,13.43
2018-09-24T06:14:50.024Z,11.77
2018-09-24T06:17:23.355Z,13.00
2018-09-24T06:19:56.561Z,18.43
2018-09-24T06:22:29.765Z,17.63
2018-09-24T06:25:02.943Z,7.13
2018-09-24T06:27:36.267Z,7.77
2018-09-24T06:30:09.721Z,6.73
2018-09-24T06:32:43.071Z,13.00
2018-09-24T06:35:16.307Z,12.03
2018-09-24T06:37:49.530Z,7.00
2018-09-24T06:40:22.796Z,8.87
2018-09-24T06:42:56.355Z,13.23
2018-09-24T06:45:29.593Z,13.03
2018-09-24T06:48:02.873Z,8.40
2018-09-24T06:50:35.958Z,7.67
2018-09-24T06:53:09.150Z,10.17
2018-09-24T06:55:42.451Z,9.30
2018-09-24T06:58:15.633Z,9.57
2018-09-24T07:00:48.861Z,12.60
2018-09-24T07:03:22.121Z,10.83
2018-09-24T07:05:55.212Z,4.83
2018-09-24T07:08:28.456Z,5.87
2018-09-24T07:11:01.619Z,5.40
2018-09-24T07:13:34.900Z,12.50
2018-09-24T07:16:08.091Z,7.43
2018-09-24T07:18:41.300Z,8.47
2018-09-24T07:21:14.460Z,8.43
2018-09-24T07:23:47.624Z,12.90
2018-09-24T07:26:20.990Z,12.97
2018-09-24T07:28:54.191Z,8.50
2018-09-24T07:31:27.603Z,9.13
2018-09-24T07:34:00.876Z,9.93
2018-09-24T07:36:34.160Z,12.53
2018-09-24T07:39:07.401Z,8.33
2018-09-24T07:41:40.636Z,8.50
2018-09-24T07:44:13.908Z,5.57
2018-09-24T07:46:47.146Z,9.30
2018-09-24T07:49:20.247Z,6.13
2018-09-24T07:51:53.525Z,6.63
2018-09-24T07:54:26.791Z,10.33
2018-09-24T07:56:59.990Z,8.80
2018-09-24T07:59:33.169Z,6.63
2018-09-24T08:02:06.375Z,10.93
2018-09-24T08:04:39.526Z,11.80
2018-09-24T08:07:16.700Z,8.80
2018-09-24T08:09:50.023Z,4.93
2018-09-24T08:12:23.159Z,5.33
2018-09-24T08:14:56.352Z,4.20
2018-09-24T08:17:29.562Z,5.00
2018-09-24T08:20:02.816Z,8.27
2018-09-24T08:22:36.025Z,17.23
2018-09-24T08:25:09.205Z,11.33
2018-09-24T08:27:42.429Z,4.63
2018-09-24T08:30:15.677Z,9.37
2018-09-24T08:32:48.884Z,12.13
2018-09-24T08:35:22.109Z,3.00
2018-09-24T08:37:55.369Z,13.13
2018-09-24T08:40:28.539Z,7.23
2018-09-24T08:43:04.447Z,8.63
2018-09-24T08:45:37.668Z,7.40
2018-09-24T08:48:10.979Z,8.67
2018-09-24T08:50:44.153Z,9.10
2018-09-24T08:53:21.172Z,5.37
2018-09-24T08:55:54.600Z,7.27
2018-09-24T08:58:27.827Z,6.33
2018-09-24T09:01:01.065Z,6.60
2018-09-24T09:03:34.281Z,7.33
2018-09-24T09:06:07.628Z,7.60
2018-09-24T09:08:40.786Z,14.77
2018-09-24T09:11:13.912Z,10.47
2018-09-24T09:13:47.392Z,6.73
2018-09-24T09:16:20.648Z,6.93
2018-09-24T09:18:53.775Z,4.20
2018-09-24T09:21:27.074Z,9.40
2018-09-24T09:24:00.321Z,8.80
2018-09-24T09:26:33.533Z,5.73
2018-09-24T09:29:06.899Z,8.60
2018-09-24T09:31:40.042Z,7.40
2018-09-24T09:34:13.272Z,4.70
2018-09-24T09:36:46.496Z,9.70
2018-09-24T09:39:19.778Z,4.83
2018-09-24T09:41:52.981Z,3.40
2018-09-24T09:44:26.247Z,4.77
2018-09-24T09:46:59.366Z,6.60
2018-09-24T09:49:32.583Z,7.13
2018-09-24T09:52:06.879Z,7.63
2018-09-24T09:54:40.142Z,9.27
2018-09-24T09:57:13.460Z,3.07
2018-09-24T09:59:46.658Z,13.60
2018-09-24T10:02:19.938Z,10.30
2018-09-24T10:04:53.197Z,4.13
2018-09-24T10:07:26.629Z,9.13
2018-09-24T10:09:59.810Z,4.50
2018-09-24T10:12:33.141Z,8.00
2018-09-24T10:15:06.423Z,6.90
2018-09-24T10:17:39.614Z,9.00
2018-09-24T10:20:12.806Z,5.63
2018-09-24T10:22:46.064Z,4.10
2018-09-24T10:25:19.357Z,5.53
2018-09-24T10:27:52.544Z,8.10
2018-09-24T10:30:25.876Z,5.77
2018-09-24T10:32:59.146Z,1.60
2018-09-24T10:35:32.373Z,4.73
2018-09-24T10:38:05.540Z,4.73
2018-09-24T10:40:38.756Z,3.50
2018-09-24T10:43:12.417Z,9.10
2018-09-24T10:45:45.707Z,8.03
2018-09-24T10:48:18.887Z,2.50
2018-09-24T10:50:52.095Z,6.70
2018-09-24T10:53:25.296Z,3.07
2018-09-24T10:55:58.494Z,6.50
2018-09-24T10:58:31.705Z,7.67
2018-09-24T11:01:04.992Z,8.50
2018-09-24T11:03:38.192Z,17.67
2018-09-24T11:06:11.453Z,2.63
2018-09-24T11:08:44.642Z,3.07
2018-09-24T11:11:17.944Z,4.37
2018-09-24T11:13:51.133Z,14.60
2018-09-24T11:16:24.433Z,1.73
2018-09-24T11:18:57.557Z,6.00
2018-09-24T11:21:30.652Z,8.73
2018-09-24T11:24:03.941Z,6.50
2018-09-24T11:26:37.135Z,6.50
2018-09-24T11:29:10.302Z,8.20
2018-09-24T11:31:43.589Z,12.73
2018-09-24T11:34:16.705Z,9.90
2018-09-24T11:36:49.829Z,3.47
2018-09-24T11:39:23.106Z,10.77
2018-09-24T11:41:56.359Z,6.03
2018-09-24T11:44:29.571Z,2.17
2018-09-24T11:47:02.896Z,4.77
2018-09-24T11:49:36.056Z,12.90
2018-09-24T11:52:09.341Z,4.83
2018-09-24T11:54:42.610Z,5.07
2018-09-24T11:57:15.842Z,2.93
2018-09-24T11:59:49.103Z,4.73
2018-09-24T12:02:22.343Z,5.60
2018-09-24T12:04:55.503Z,3.47
2018-09-24T12:07:28.736Z,3.57
2018-09-24T12:10:01.870Z,5.20
2018-09-24T12:12:35.071Z,5.90
2018-09-24T12:15:08.328Z,4.00
2018-09-24T12:17:41.561Z,5.70
2018-09-24T12:20:14.744Z,5.40
2018-09-24T12:22:47.934Z,4.33
2018-09-24T12:25:21.152Z,4.47
2018-09-24T12:27:54.287Z,3.63
2018-09-24T12:30:27.505Z,9.93
2018-09-24T12:33:00.611Z,5.90
2018-09-24T12:35:33.787Z,3.60
2018-09-24T12:38:06.984Z,4.30
2018-09-24T12:40:40.234Z,5.80
2018-09-24T12:43:13.483Z,5.73
2018-09-24T12:45:46.673Z,3.13
2018-09-24T12:48:20.009Z,5.13
2018-09-24T12:50:53.236Z,7.17
2018-09-24T12:53:26.482Z,6.30
2018-09-24T12:55:59.781Z,9.57
2018-09-24T12:58:32.955Z,2.03
2018-09-24T13:01:06.149Z,4.90
2018-09-24T13:03:39.375Z,4.10
2018-09-24T13:06:12.637Z,5.70
2018-09-24T13:08:45.881Z,5.20
2018-09-24T13:11:19.091Z,4.93
2018-09-24T13:13:52.396Z,8.03
2018-09-24T13:16:25.585Z,3.10
2018-09-24T13:18:58.821Z,2.83
2018-09-24T13:21:32.014Z,5.00
2018-09-24T13:24:05.203Z,2.30
2018-09-24T13:26:38.497Z,1.63
2018-09-24T13:29:11.930Z,4.20
2018-09-24T13:31:45.138Z,2.90
2018-09-24T13:34:18.295Z,6.83
2018-09-24T13:36:51.511Z,2.73
2018-09-24T13:39:24.750Z,5.10
2018-09-24T13:41:58.003Z,5.60
2018-09-24T13:44:31.196Z,6.20
2018-09-24T13:47:04.390Z,7.33
2018-09-24T13:49:37.668Z,3.90
2018-09-24T13:52:11.015Z,4.30
2018-09-24T13:54:44.275Z,6.47
2018-09-24T13:57:17.585Z,4.10
2018-09-24T13:59:50.733Z,2.50
2018-09-24T14:02:23.746Z,3.07
2018-09-24T14:04:56.931Z,14.07
2018-09-24T14:07:31.563Z,4.90
2018-09-24T14:10:04.633Z,4.70
2018-09-24T14:12:37.789Z,2.93
2018-09-24T14:15:11.020Z,8.10
2018-09-24T14:17:44.234Z,8.13
2018-09-24T14:20:17.362Z,7.40
2018-09-24T14:22:50.623Z,6.33
2018-09-24T14:25:23.788Z,3.90
2018-09-24T14:27:57.000Z,5.67
2018-09-24T14:30:30.190Z,4.60
2018-09-24T14:33:03.400Z,5.83
2018-09-24T14:35:36.579Z,6.43
2018-09-24T14:38:09.747Z,12.23
2018-09-24T14:40:43.067Z,4.03
2018-09-24T14:43:16.248Z,6.77
2018-09-24T14:45:49.449Z,4.77
2018-09-24T14:48:22.697Z,5.00
2018-09-24T14:50:55.905Z,1.80
2018-09-24T14:53:29.148Z,4.80
2018-09-24T14:56:02.374Z,2.20
2018-09-24T14:58:35.477Z,22.13
2018-09-24T15:01:08.698Z,5.40
2018-09-24T15:03:42.128Z,8.10
2018-09-24T15:06:15.321Z,3.30
2018-09-24T15:08:48.695Z,1.90
2018-09-24T15:11:21.793Z,6.00
2018-09-24T15:13:55.141Z,10.80
2018-09-24T15:16:28.416Z,4.40
2018-09-24T15:19:01.493Z,8.00
2018-09-24T15:21:34.656Z,4.37
2018-09-24T15:24:07.882Z,11.73
2018-09-24T15:26:41.084Z,10.77
2018-09-24T15:29:14.417Z,4.87
2018-09-24T15:31:47.752Z,4.10
2018-09-24T15:34:21.049Z,3.97
2018-09-24T15:36:54.279Z,5.87
2018-09-24T15:39:27.511Z,3.37
2018-09-24T15:42:00.804Z,4.90
2018-09-24T15:44:34.029Z,7.20
2018-09-24T15:47:07.208Z,2.03
2018-09-24T15:49:40.452Z,7.60
2018-09-24T15:52:13.664Z,7.23
2018-09-24T15:54:46.952Z,0.93
2018-09-24T15:57:20.229Z,5.00
2018-09-24T15:59:53.444Z,6.80
2018-09-24T16:02:26.645Z,3.37
2018-09-24T16:04:59.960Z,4.63
2018-09-24T16:07:33.122Z,5.97
2018-09-24T16:10:06.291Z,3.53
2018-09-24T16:12:39.460Z,3.70
2018-09-24T16:15:13.468Z,1.70
2018-09-24T16:17:46.667Z,1.70
2018-09-24T16:20:19.855Z,1.63
2018-09-24T16:22:53.030Z,5.93
2018-09-24T16:25:26.358Z,6.80
2018-09-24T16:27:59.597Z,8.70
2018-09-24T16:30:35.819Z,2.83
2018-09-24T16:33:09.125Z,4.10
2018-09-24T16:35:42.306Z,9.70
2018-09-24T16:38:15.484Z,1.47
2018-09-24T16:40:48.597Z,7.63
2018-09-24T16:43:21.857Z,5.40
2018-09-24T16:45:54.998Z,6.53
2018-09-24T16:48:28.124Z,9.17
2018-09-24T16:51:01.357Z,2.70
2018-09-24T16:53:36.008Z,23.87
2018-09-24T16:56:09.129Z,4.97
2018-09-24T16:58:42.297Z,7.77
2018-09-24T17:01:15.448Z,2.60
2018-09-24T17:03:48.732Z,2.60
2018-09-24T17:06:21.834Z,4.57
2018-09-24T17:08:55.063Z,5.30
2018-09-24T17:11:28.333Z,9.83
2018-09-24T17:14:01.548Z,10.53
2018-09-24T17:16:34.730Z,5.50
2018-09-24T17:19:07.959Z,1.93
2018-09-24T17:21:41.111Z,4.27
2018-09-24T17:24:14.329Z,3.53
2018-09-24T17:26:47.523Z,3.67
2018-09-24T17:29:20.806Z,2.87
2018-09-24T17:31:54.040Z,3.33
2018-09-24T17:34:27.222Z,2.50
2018-09-24T17:37:00.602Z,20.27
2018-09-24T17:39:33.792Z,3.17
2018-09-24T17:42:06.988Z,4.57
2018-09-24T17:44:40.186Z,5.20
2018-09-24T17:47:13.527Z,4.50
2018-09-24T17:49:46.779Z,11.40
2018-09-24T17:52:19.983Z,8.20
2018-09-24T17:54:53.217Z,4.33
2018-09-24T17:57:26.418Z,4.87
2018-09-24T17:59:59.659Z,5.27
2018-09-24T18:02:32.927Z,3.10
2018-09-24T18:05:06.084Z,3.60
2018-09-24T18:07:39.191Z,5.47
2018-09-24T18:10:12.465Z,4.40
2018-09-24T18:12:45.747Z,4.90
2018-09-24T18:15:18.940Z,7.33
2018-09-24T18:17:52.119Z,5.77
2018-09-24T18:20:25.438Z,5.10
2018-09-24T18:22:58.545Z,4.83
2018-09-24T18:25:31.853Z,7.73
2018-09-24T18:28:05.044Z,5.37
2018-09-24T18:30:38.230Z,12.23
2018-09-24T18:33:11.472Z,3.87
2018-09-24T18:35:44.815Z,3.37
2018-09-24T18:38:17.977Z,6.67
2018-09-24T18:40:51.137Z,5.07
2018-09-24T18:43:24.347Z,5.60
2018-09-24T18:45:57.560Z,3.30
2018-09-24T18:48:30.793Z,5.10
2018-09-24T18:51:03.989Z,4.80
2018-09-24T18:53:37.329Z,9.20
2018-09-24T18:56:10.669Z,6.20
2018-09-24T18:58:43.851Z,2.73
2018-09-24T19:01:17.105Z,5.90
2018-09-24T19:03:50.358Z,8.90
2018-09-24T19:06:23.529Z,5.70
2018-09-24T19:08:56.786Z,5.50
2018-09-24T19:11:29.981Z,10.87
2018-09-24T19:14:03.189Z,8.53
2018-09-24T19:16:36.415Z,4.40
2018-09-24T19:19:09.586Z,9.13
2018-09-24T19:21:42.847Z,10.83
2018-09-24T19:24:16.033Z,4.70
2018-09-24T19:26:49.328Z,4.97
2018-09-24T19:29:22.577Z,5.03
2018-09-24T19:31:55.830Z,5.20
2018-09-24T19:34:29.185Z,2.93
2018-09-24T19:37:02.530Z,5.70
2018-09-24T19:39:35.659Z,5.30
2018-09-24T19:42:08.918Z,2.83
2018-09-24T19:44:42.114Z,23.10
2018-09-24T19:47:15.313Z,5.50
2018-09-24T19:49:48.573Z,12.30
2018-09-24T19:52:21.770Z,14.40
2018-09-24T19:54:55.034Z,10.67
2018-09-24T19:57:28.289Z,9.60
2018-09-24T20:00:01.433Z,4.17
2018-09-24T20:02:34.731Z,6.63
2018-09-24T20:05:08.015Z,4.80
2018-09-24T20:07:41.333Z,9.27
2018-09-24T20:10:14.519Z,13.87
2018-09-24T20:12:47.818Z,6.20
2018-09-24T20:15:20.998Z,31.03
2018-09-24T20:17:54.337Z,15.47
2018-09-24T20:20:27.531Z,2.10
2018-09-24T20:23:00.793Z,6.43
2018-09-24T20:25:34.111Z,9.80
2018-09-24T20:28:07.361Z,6.57
2018-09-24T20:30:40.632Z,3.73
2018-09-24T20:33:13.897Z,6.60
2018-09-24T20:35:47.139Z,6.70
2018-09-24T20:38:20.439Z,11.23
2018-09-24T20:40:53.668Z,3.60
2018-09-24T20:43:26.938Z,5.77
2018-09-24T20:46:00.190Z,6.53
2018-09-24T20:48:33.375Z,4.40
2018-09-24T20:51:06.732Z,3.90
2018-09-24T20:53:39.994Z,7.10
2018-09-24T20:56:13.245Z,9.67
2018-09-24T20:58:53.170Z,5.30
2018-09-24T21:01:26.380Z,4.57
2018-09-24T21:03:59.548Z,4.93
2018-09-24T21:06:32.777Z,6.23
2018-09-24T21:09:06.027Z,2.60
2018-09-24T21:11:39.234Z,3.90
2018-09-24T21:14:12.429Z,7.00
2018-09-24T21:16:45.715Z,3.47
2018-09-24T21:19:18.893Z,7.43
2018-09-24T21:21:52.101Z,9.93
2018-09-24T21:24:25.334Z,8.80
2018-09-24T21:26:58.496Z,2.60
2018-09-24T21:29:31.723Z,5.30
2018-09-24T21:32:05.048Z,9.00
2018-09-24T21:34:38.239Z,5.07
2018-09-24T21:37:11.631Z,7.67
2018-09-24T21:39:44.845Z,6.33
2018-09-24T21:42:18.051Z,16.80
2018-09-24T21:44:51.298Z,9.40
2018-09-24T21:47:24.563Z,4.80
2018-09-24T21:49:57.707Z,3.30
2018-09-24T21:52:30.937Z,17.90
2018-09-24T21:55:04.008Z,15.00
2018-09-24T21:57:37.227Z,50.17
2018-09-24T22:00:10.677Z,36.43
2018-09-24T22:02:43.964Z,29.20
2018-09-24T22:05:17.220Z,31.17
2018-09-24T22:07:50.428Z,33.80
2018-09-24T22:10:23.543Z,32.43
2018-09-24T22:12:56.839Z,32.33
2018-09-24T22:15:30.106Z,12.13
2018-09-24T22:18:03.330Z,18.93
2018-09-24T22:20:36.633Z,15.47
2018-09-24T22:23:09.999Z,20.53
2018-09-24T22:25:43.216Z,15.03
2018-09-24T22:28:16.451Z,9.27
2018-09-24T22:30:49.647Z,21.83
2018-09-24T22:33:22.782Z,13.03
2018-09-24T22:35:55.904Z,8.70
2018-09-24T22:38:29.680Z,10.40
2018-09-24T22:41:02.933Z,13.20
2018-09-24T22:43:36.083Z,8.30
2018-09-24T22:46:09.264Z,5.90
2018-09-24T22:48:42.436Z,7.00
2018-09-24T22:51:15.635Z,5.93
2018-09-24T22:53:48.881Z,8.10
2018-09-24T22:56:22.149Z,7.53
2018-09-24T22:58:55.396Z,8.83
2018-09-24T23:01:28.624Z,4.87
2018-09-24T23:04:01.854Z,13.93
2018-09-24T23:06:34.996Z,6.53
2018-09-24T23:09:08.261Z,3.60
2018-09-24T23:11:41.396Z,11.83
2018-09-24T23:14:14.633Z,9.13
2018-09-24T23:16:47.811Z,3.70
2018-09-24T23:19:21.022Z,6.20
2018-09-24T23:22:01.088Z,13.73
2018-09-24T23:24:34.357Z,5.63
2018-09-24T23:27:07.621Z,5.93
2018-09-24T23:29:40.884Z,6.07
2018-09-24T23:32:14.180Z,4.83
2018-09-24T23:34:47.476Z,5.57
2018-09-24T23:37:20.707Z,6.23
2018-09-24T23:39:54.000Z,8.67
2018-09-24T23:42:27.221Z,4.73
2018-09-24T23:45:00.395Z,4.47
2018-09-24T23:47:33.500Z,7.73
2018-09-24T23:50:06.721Z,8.70
2018-09-24T23:52:39.912Z,7.10
2018-09-24T23:55:13.076Z,3.80
2018-09-24T23:57:46.304Z,10.97
